createdAt,value
2023-01-25T00:01:36.033Z,70.89
2023-01-25T00:04:02.630Z,71.31
2023-01-25T00:06:29.314Z,72.11
2023-01-25T00:08:55.931Z,74.84
2023-01-25T00:11:22.547Z,72.43
2023-01-25T00:13:49.385Z,72.21
2023-01-25T00:16:16.120Z,71.44
2023-01-25T00:18:42.749Z,70.50
2023-01-25T00:21:18.395Z,72.01
2023-01-25T00:23:45.370Z,70.59
2023-01-25T00:26:12.328Z,69.92
2023-01-25T00:28:39.456Z,70.16
2023-01-25T00:31:07.780Z,70.43
2023-01-25T00:33:37.166Z,71.14
2023-01-25T00:36:26.377Z,70.28
2023-01-25T00:38:54.409Z,69.94
2023-01-25T00:41:21.451Z,70.10
2023-01-25T00:43:48.149Z,69.61
2023-01-25T00:46:16.828Z,69.52
2023-01-25T00:48:47.058Z,69.50
2023-01-25T00:51:14.038Z,70.02
2023-01-25T00:53:40.627Z,70.80
2023-01-25T00:56:07.576Z,71.02
2023-01-25T00:58:34.138Z,72.29
2023-01-25T01:01:00.793Z,72.36
2023-01-25T01:03:27.420Z,71.47
2023-01-25T01:06:05.751Z,71.55
2023-01-25T01:08:38.922Z,71.51
2023-01-25T01:11:09.569Z,70.25
2023-01-25T01:13:36.937Z,70.74
2023-01-25T01:16:06.179Z,70.52
2023-01-25T01:18:37.016Z,70.78
2023-01-25T01:21:03.762Z,70.70
2023-01-25T01:23:31.074Z,70.05
2023-01-25T01:26:05.613Z,70.58
2023-01-25T01:28:33.513Z,70.50
2023-01-25T01:31:04.492Z,69.76
2023-01-25T01:33:31.118Z,70.05
2023-01-25T01:35:58.078Z,71.28
2023-01-25T01:38:25.303Z,69.95
2023-01-25T01:40:51.988Z,70.86
2023-01-25T01:43:21.052Z,69.66
2023-01-25T01:45:47.812Z,69.08
2023-01-25T01:48:28.642Z,68.29
2023-01-25T01:51:08.587Z,70.12
2023-01-25T01:53:35.275Z,69.68
2023-01-25T01:56:07.878Z,70.08
2023-01-25T01:58:35.672Z,69.87
2023-01-25T02:01:02.665Z,70.67
2023-01-25T02:03:30.707Z,69.81
2023-01-25T02:06:02.976Z,69.95
2023-01-25T02:08:33.690Z,68.58
2023-01-25T02:11:02.305Z,67.90
2023-01-25T02:13:29.215Z,68.72
2023-01-25T02:15:56.696Z,68.57
2023-01-25T02:18:24.833Z,72.92
2023-01-25T02:20:58.021Z,71.24
2023-01-25T02:23:40.661Z,71.29
2023-01-25T02:26:07.911Z,70.47
2023-01-25T02:28:37.333Z,70.13
2023-01-25T02:31:04.597Z,71.04
2023-01-25T02:33:31.370Z,72.99
2023-01-25T02:36:21.517Z,71.54
2023-01-25T02:38:56.859Z,69.36
2023-01-25T02:41:37.070Z,69.09
2023-01-25T02:44:11.506Z,69.21
2023-01-25T02:46:40.335Z,69.42
2023-01-25T02:49:08.643Z,69.92
2023-01-25T02:51:38.645Z,69.48
2023-01-25T02:54:07.626Z,68.96
2023-01-25T02:56:34.375Z,69.06
2023-01-25T02:59:05.518Z,69.71
2023-01-25T03:01:36.941Z,68.45
2023-01-25T03:04:04.267Z,68.52
2023-01-25T03:06:31.385Z,68.14
2023-01-25T03:08:58.213Z,68.03
2023-01-25T03:11:24.969Z,68.00
2023-01-25T03:13:51.600Z,69.35
2023-01-25T03:16:18.566Z,68.73
2023-01-25T03:18:45.497Z,67.62
2023-01-25T03:21:15.126Z,67.21
2023-01-25T03:23:42.771Z,67.91
2023-01-25T03:26:15.298Z,67.89
2023-01-25T03:28:42.859Z,68.61
2023-01-25T03:31:12.337Z,68.70
2023-01-25T03:33:39.549Z,68.36
2023-01-25T03:36:07.741Z,67.92
2023-01-25T03:38:35.069Z,67.46
2023-01-25T03:41:02.233Z,68.55
2023-01-25T03:43:29.376Z,68.66
2023-01-25T03:46:00.985Z,68.24
2023-01-25T03:48:28.739Z,69.35
2023-01-25T03:50:58.149Z,68.69
2023-01-25T03:53:29.938Z,68.77
2023-01-25T03:55:59.918Z,70.63
2023-01-25T03:58:27.040Z,70.13
2023-01-25T04:00:58.839Z,69.32
2023-01-25T04:03:26.485Z,70.63
2023-01-25T04:05:54.250Z,70.46
2023-01-25T04:08:21.912Z,70.24
2023-01-25T04:10:57.600Z,70.09
2023-01-25T04:13:25.395Z,69.43
2023-01-25T04:15:52.486Z,69.95
2023-01-25T04:18:19.450Z,69.23
2023-01-25T04:20:46.768Z,68.94
2023-01-25T04:23:13.431Z,68.29
2023-01-25T04:25:40.167Z,68.54
2023-01-25T04:28:06.800Z,67.80
2023-01-25T04:30:33.531Z,69.30
2023-01-25T04:33:06.854Z,68.39
2023-01-25T04:35:33.522Z,69.14
2023-01-25T04:38:00.163Z,68.56
2023-01-25T04:40:27.315Z,68.46
2023-01-25T04:42:54.136Z,68.88
2023-01-25T04:45:20.793Z,67.84
2023-01-25T04:47:47.457Z,67.63
2023-01-25T04:50:14.303Z,69.91
2023-01-25T04:52:40.947Z,69.27
2023-01-25T04:55:08.335Z,69.37
2023-01-25T04:57:35.221Z,68.77
2023-01-25T05:00:02.463Z,72.82
2023-01-25T05:02:29.109Z,76.34
2023-01-25T05:04:55.752Z,76.35
2023-01-25T05:07:22.424Z,73.15
2023-01-25T05:09:49.054Z,72.51
2023-01-25T05:12:15.680Z,72.36
2023-01-25T05:14:42.311Z,74.45
2023-01-25T05:17:09.169Z,73.22
2023-01-25T05:19:35.999Z,71.02
2023-01-25T05:22:07.472Z,70.06
2023-01-25T05:24:35.474Z,69.67
2023-01-25T05:27:06.198Z,69.71
2023-01-25T05:29:37.924Z,69.72
2023-01-25T05:32:05.876Z,70.09
2023-01-25T05:34:32.917Z,69.79
2023-01-25T05:36:59.754Z,72.99
2023-01-25T05:39:26.498Z,73.27
2023-01-25T05:41:53.403Z,71.75
2023-01-25T05:44:20.358Z,71.76
2023-01-25T05:46:47.091Z,70.29
2023-01-25T05:49:13.947Z,69.15
2023-01-25T05:51:41.369Z,70.74
2023-01-25T05:54:12.221Z,69.85
2023-01-25T05:56:38.835Z,69.08
2023-01-25T05:59:05.692Z,69.85
2023-01-25T06:01:32.663Z,68.61
2023-01-25T06:03:59.399Z,70.79
2023-01-25T06:06:26.017Z,69.91
2023-01-25T06:08:53.681Z,70.25
2023-01-25T06:11:22.569Z,69.42
2023-01-25T06:14:01.258Z,68.43
2023-01-25T06:16:48.215Z,68.37
2023-01-25T06:19:15.000Z,69.59
2023-01-25T06:21:41.634Z,70.96
2023-01-25T06:24:08.412Z,70.65
2023-01-25T06:26:35.330Z,69.96
2023-01-25T06:29:27.875Z,70.40
2023-01-25T06:31:55.847Z,70.78
2023-01-25T06:34:24.489Z,72.27
2023-01-25T06:36:51.141Z,69.81
2023-01-25T06:39:17.715Z,69.25
2023-01-25T06:45:00.655Z,71.09
2023-01-25T06:47:57.252Z,73.89
2023-01-25T06:51:00.043Z,75.34
2023-01-25T06:53:52.550Z,74.65
2023-01-25T06:56:41.862Z,72.86
2023-01-25T06:59:24.888Z,74.61
2023-01-25T07:01:56.438Z,75.07
2023-01-25T07:07:16.718Z,75.73
2023-01-25T07:09:45.981Z,75.04
2023-01-25T07:12:40.178Z,74.94
2023-01-25T07:15:15.589Z,73.72
2023-01-25T07:17:45.990Z,74.10
2023-01-25T07:20:12.840Z,72.28
2023-01-25T07:22:41.889Z,70.05
2023-01-25T07:25:19.830Z,69.30
2023-01-25T07:27:46.555Z,72.89
2023-01-25T07:30:14.536Z,74.92
2023-01-25T07:32:41.133Z,73.93
2023-01-25T07:35:19.079Z,71.18
2023-01-25T07:37:45.687Z,71.75
2023-01-25T07:40:13.524Z,70.97
2023-01-25T07:42:40.147Z,69.89
2023-01-25T07:45:07.944Z,70.25
2023-01-25T07:47:37.078Z,68.99
2023-01-25T07:50:04.750Z,69.97
2023-01-25T07:52:31.315Z,73.61
2023-01-25T07:54:57.992Z,72.26
2023-01-25T07:57:25.527Z,72.18
2023-01-25T07:59:52.114Z,69.99
2023-01-25T08:02:18.748Z,71.19
2023-01-25T08:04:45.650Z,71.41
2023-01-25T08:07:13.697Z,75.79
2023-01-25T08:09:41.774Z,76.16
2023-01-25T08:12:08.792Z,75.90
2023-01-25T08:14:35.475Z,73.02
2023-01-25T08:17:02.101Z,74.16
2023-01-25T08:19:28.778Z,73.80
2023-01-25T08:21:55.680Z,75.15
2023-01-25T08:24:25.632Z,72.96
2023-01-25T08:26:52.349Z,73.98
2023-01-25T08:29:19.069Z,76.43
2023-01-25T08:31:45.767Z,73.27
2023-01-25T08:34:12.410Z,71.85
2023-01-25T08:36:41.921Z,72.60
2023-01-25T08:39:11.775Z,76.06
2023-01-25T08:41:38.621Z,78.01
2023-01-25T08:44:06.481Z,76.36
2023-01-25T08:46:34.201Z,72.89
2023-01-25T08:49:02.913Z,71.55
2023-01-25T08:51:31.298Z,70.45
2023-01-25T08:54:02.426Z,74.15
2023-01-25T08:56:29.004Z,76.61
2023-01-25T08:58:56.371Z,74.73
2023-01-25T09:01:23.245Z,72.19
2023-01-25T09:03:51.252Z,73.02
2023-01-25T09:06:19.849Z,72.54
2023-01-25T09:08:47.204Z,72.94
2023-01-25T09:11:17.749Z,73.55
2023-01-25T09:13:44.772Z,77.05
2023-01-25T09:16:14.137Z,73.85
2023-01-25T09:18:43.399Z,71.58
2023-01-25T09:21:12.754Z,71.19
2023-01-25T09:23:50.776Z,70.68
2023-01-25T09:26:18.578Z,69.04
2023-01-25T09:28:50.740Z,68.76
2023-01-25T09:31:23.414Z,71.66
2023-01-25T09:33:52.732Z,71.35
2023-01-25T09:36:19.887Z,72.28
2023-01-25T09:38:46.580Z,75.07
2023-01-25T09:41:19.940Z,74.88
2023-01-25T09:44:14.790Z,71.15
2023-01-25T09:46:45.706Z,72.20
2023-01-25T09:49:33.815Z,70.61
2023-01-25T09:52:28.454Z,72.50
2023-01-25T09:54:55.209Z,72.41
2023-01-25T09:57:28.801Z,72.21
2023-01-25T09:59:56.640Z,69.82
2023-01-25T10:02:41.958Z,71.15
2023-01-25T10:05:17.922Z,70.21
2023-01-25T10:07:57.425Z,71.38
2023-01-25T10:10:38.123Z,71.22
2023-01-25T10:13:06.772Z,73.43
2023-01-25T10:15:41.209Z,72.16
2023-01-25T10:18:25.574Z,71.86
2023-01-25T10:20:58.319Z,71.64
2023-01-25T10:23:36.912Z,72.13
2023-01-25T10:26:29.935Z,71.76
2023-01-25T10:29:12.856Z,72.57
2023-01-25T10:31:59.639Z,70.62
2023-01-25T10:34:28.213Z,70.31
2023-01-25T10:36:56.583Z,70.49
2023-01-25T10:39:24.192Z,72.20
2023-01-25T10:41:56.786Z,71.39
2023-01-25T10:44:26.031Z,71.62
2023-01-25T10:47:07.519Z,69.56
2023-01-25T10:49:51.600Z,68.60
2023-01-25T10:52:22.252Z,68.97
2023-01-25T10:55:02.437Z,70.03
2023-01-25T10:57:30.021Z,68.96
2023-01-25T11:00:05.525Z,67.68
2023-01-25T11:02:47.249Z,67.73
2023-01-25T11:05:19.811Z,68.52
2023-01-25T11:07:47.084Z,67.93
2023-01-25T11:10:28.112Z,69.53
2023-01-25T11:13:16.610Z,68.01
2023-01-25T11:15:52.456Z,67.43
2023-01-25T11:18:35.092Z,67.73
2023-01-25T11:21:18.496Z,68.25
2023-01-25T11:24:05.071Z,67.43
2023-01-25T11:26:33.694Z,66.63
2023-01-25T11:29:06.248Z,65.03
2023-01-25T11:31:33.255Z,65.38
2023-01-25T11:34:00.067Z,70.44
2023-01-25T11:36:55.415Z,69.01
2023-01-25T11:39:30.065Z,65.54
2023-01-25T11:42:35.886Z,66.43
2023-01-25T11:45:11.327Z,66.08
2023-01-25T11:48:08.541Z,65.47
2023-01-25T11:51:06.920Z,65.89
2023-01-25T11:54:09.543Z,66.27
2023-01-25T11:56:50.721Z,65.05
2023-01-25T11:59:40.431Z,64.36
2023-01-25T12:02:08.619Z,64.36
2023-01-25T12:05:16.317Z,62.45
2023-01-25T12:08:12.064Z,63.33
2023-01-25T12:10:57.181Z,66.78
2023-01-25T12:13:41.284Z,66.32
2023-01-25T12:16:10.551Z,64.21
2023-01-25T12:18:55.413Z,62.97
2023-01-25T12:21:35.569Z,64.55
2023-01-25T12:24:14.110Z,64.99
2023-01-25T12:26:55.675Z,65.30
2023-01-25T12:29:32.878Z,65.28
2023-01-25T12:32:12.848Z,66.20
2023-01-25T12:34:43.013Z,64.62
2023-01-25T12:37:22.346Z,66.99
2023-01-25T12:39:57.209Z,66.54
2023-01-25T12:42:36.780Z,66.87
2023-01-25T12:45:16.251Z,64.40
2023-01-25T12:48:21.974Z,63.78
2023-01-25T12:50:56.242Z,65.60
2023-01-25T12:53:41.848Z,67.11
2023-01-25T12:56:14.570Z,66.08
2023-01-25T12:58:47.803Z,67.99
2023-01-25T13:01:45.294Z,66.46
2023-01-25T13:04:53.382Z,68.55
2023-01-25T13:07:31.381Z,65.97
2023-01-25T13:10:21.386Z,66.03
2023-01-25T13:13:29.018Z,67.55
2023-01-25T13:15:56.079Z,69.77
2023-01-25T13:18:29.177Z,68.26
2023-01-25T13:21:00.722Z,68.66
2023-01-25T13:23:50.252Z,67.41
2023-01-25T13:26:22.471Z,69.18
2023-01-25T13:28:51.636Z,67.94
2023-01-25T13:31:51.388Z,68.04
2023-01-25T13:34:39.812Z,66.55
2023-01-25T13:37:24.428Z,66.19
2023-01-25T13:39:55.844Z,65.55
2023-01-25T13:42:33.801Z,64.62
2023-01-25T13:45:15.011Z,64.98
2023-01-25T13:47:43.900Z,67.93
2023-01-25T13:50:24.514Z,70.01
2023-01-25T13:52:58.407Z,67.36
2023-01-25T13:55:25.506Z,66.38
2023-01-25T13:57:52.198Z,66.91
2023-01-25T14:00:19.529Z,69.70
2023-01-25T14:03:00.847Z,69.10
2023-01-25T14:05:38.917Z,67.02
2023-01-25T14:08:05.681Z,65.36
2023-01-25T14:13:27.578Z,67.45
2023-01-25T14:16:09.310Z,69.01
2023-01-25T14:18:38.787Z,68.11
2023-01-25T14:21:20.381Z,66.45
2023-01-25T14:23:48.707Z,65.67
2023-01-25T14:26:20.004Z,65.82
2023-01-25T14:28:59.332Z,67.28
2023-01-25T14:31:36.310Z,67.07
2023-01-25T14:34:04.977Z,67.25
2023-01-25T14:36:37.320Z,67.36
2023-01-25T14:39:16.741Z,66.44
2023-01-25T14:41:59.261Z,65.54
2023-01-25T14:44:29.152Z,66.19
2023-01-25T14:47:22.026Z,65.13
2023-01-25T14:49:48.850Z,63.88
2023-01-25T14:52:19.480Z,65.35
2023-01-25T14:54:48.667Z,64.36
2023-01-25T14:57:27.660Z,65.40
2023-01-25T14:59:55.959Z,64.98
2023-01-25T15:02:47.904Z,64.27
2023-01-25T15:05:43.429Z,65.02
2023-01-25T15:08:10.530Z,65.78
2023-01-25T15:10:58.347Z,65.76
2023-01-25T15:13:26.929Z,64.63
2023-01-25T15:16:00.631Z,65.17
2023-01-25T15:18:53.067Z,65.97
2023-01-25T15:21:26.942Z,68.23
2023-01-25T15:23:55.982Z,68.96
2023-01-25T15:26:28.393Z,68.28
2023-01-25T15:28:57.690Z,66.89
2023-01-25T15:31:33.398Z,69.17
2023-01-25T15:34:02.524Z,67.98
2023-01-25T15:36:31.044Z,67.02
2023-01-25T15:38:57.799Z,64.99
2023-01-25T15:41:24.518Z,67.70
2023-01-25T15:43:51.249Z,68.42
2023-01-25T15:46:27.021Z,67.54
2023-01-25T15:48:53.966Z,68.12
2023-01-25T15:51:21.668Z,69.43
2023-01-25T15:53:48.405Z,67.36
2023-01-25T15:56:24.848Z,70.56
2023-01-25T15:58:53.770Z,70.15
2023-01-25T16:01:22.211Z,70.23
2023-01-25T16:03:48.958Z,67.77
2023-01-25T16:06:46.179Z,68.03
2023-01-25T16:09:24.781Z,72.12
2023-01-25T16:11:54.557Z,71.40
2023-01-25T16:14:23.720Z,73.67
2023-01-25T16:16:52.302Z,71.21
2023-01-25T16:19:25.369Z,70.24
2023-01-25T16:21:52.340Z,71.59
2023-01-25T16:24:22.058Z,74.38
2023-01-25T16:26:53.236Z,73.42
2023-01-25T16:29:20.060Z,70.05
2023-01-25T16:31:47.162Z,67.45
2023-01-25T16:34:13.890Z,69.49
2023-01-25T16:36:40.639Z,70.70
2023-01-25T16:39:25.469Z,69.08
2023-01-25T16:41:52.312Z,68.04
2023-01-25T16:44:19.341Z,69.78
2023-01-25T16:46:48.377Z,72.45
2023-01-25T16:49:26.353Z,72.44
2023-01-25T16:52:13.967Z,74.04
2023-01-25T16:54:40.677Z,73.47
2023-01-25T16:57:19.995Z,74.07
2023-01-25T16:59:47.325Z,73.27
2023-01-25T17:02:14.031Z,74.61
2023-01-25T17:04:43.624Z,73.86
2023-01-25T17:07:12.537Z,72.77
2023-01-25T17:09:39.152Z,76.04
2023-01-25T17:12:07.808Z,73.81
2023-01-25T17:14:35.917Z,70.55
2023-01-25T17:17:05.351Z,70.25
2023-01-25T17:19:32.205Z,70.31
2023-01-25T17:21:59.234Z,72.86
2023-01-25T17:24:26.145Z,69.80
2023-01-25T17:26:57.791Z,70.29
2023-01-25T17:29:24.859Z,73.61
2023-01-25T17:31:51.743Z,71.02
2023-01-25T17:34:19.447Z,70.79
2023-01-25T17:36:46.497Z,69.53
2023-01-25T17:39:15.560Z,68.84
2023-01-25T17:41:47.657Z,67.77
2023-01-25T17:44:20.360Z,67.46
2023-01-25T17:46:47.274Z,68.82
2023-01-25T17:49:20.210Z,71.09
2023-01-25T17:51:46.833Z,71.36
2023-01-25T17:54:13.729Z,68.93
2023-01-25T17:56:40.484Z,69.54
2023-01-25T17:59:09.132Z,69.79
2023-01-25T18:01:36.096Z,69.74
2023-01-25T18:04:06.315Z,70.39
2023-01-25T18:06:33.548Z,68.37
2023-01-25T18:09:02.600Z,68.00
2023-01-25T18:11:32.407Z,67.74
2023-01-25T18:14:02.104Z,69.69
2023-01-25T18:16:30.570Z,69.02
2023-01-25T18:18:59.323Z,68.76
2023-01-25T18:21:32.083Z,67.98
2023-01-25T18:24:15.434Z,67.43
2023-01-25T18:26:42.808Z,66.08
2023-01-25T18:29:09.661Z,65.97
2023-01-25T18:31:37.122Z,67.42
2023-01-25T18:34:04.861Z,66.91
2023-01-25T18:36:31.682Z,65.48
2023-01-25T18:39:00.046Z,65.57
2023-01-25T18:41:26.768Z,64.83
2023-01-25T18:43:53.464Z,65.69
2023-01-25T18:46:20.185Z,64.92
2023-01-25T18:48:47.334Z,69.11
2023-01-25T18:51:17.723Z,68.56
2023-01-25T18:53:47.642Z,67.73
2023-01-25T18:56:17.096Z,68.05
2023-01-25T18:58:45.224Z,68.57
2023-01-25T19:01:17.405Z,68.92
2023-01-25T19:03:45.476Z,69.39
2023-01-25T19:06:13.278Z,68.71
2023-01-25T19:08:44.615Z,68.69
2023-01-25T19:11:14.083Z,68.98
2023-01-25T19:13:42.110Z,69.22
2023-01-25T19:16:11.382Z,69.43
2023-01-25T19:18:46.913Z,68.93
2023-01-25T19:21:19.017Z,67.37
2023-01-25T19:23:46.042Z,67.50
2023-01-25T19:26:16.250Z,67.71
2023-01-25T19:28:47.088Z,68.31
2023-01-25T19:31:16.339Z,68.71
2023-01-25T19:33:44.666Z,67.40
2023-01-25T19:36:24.757Z,66.00
2023-01-25T19:38:51.777Z,67.49
2023-01-25T19:41:29.695Z,68.13
2023-01-25T19:44:01.146Z,68.64
2023-01-25T19:46:32.792Z,67.76
2023-01-25T19:49:27.358Z,67.45
2023-01-25T19:51:55.899Z,67.44
2023-01-25T19:54:24.372Z,66.06
2023-01-25T19:56:53.014Z,66.92
2023-01-25T19:59:25.239Z,65.74
2023-01-25T20:01:58.448Z,65.84
2023-01-25T20:04:25.482Z,65.11
2023-01-25T20:06:57.999Z,65.54
2023-01-25T20:09:41.881Z,64.56
2023-01-25T20:12:09.100Z,65.35
2023-01-25T20:14:38.124Z,64.23
2023-01-25T20:17:08.007Z,64.61
2023-01-25T20:19:37.112Z,67.15
2023-01-25T20:22:04.393Z,66.17
2023-01-25T20:24:31.085Z,65.75
2023-01-25T20:27:00.919Z,69.14
2023-01-25T20:29:28.943Z,66.74
2023-01-25T20:31:55.626Z,68.06
2023-01-25T20:34:25.829Z,66.69
2023-01-25T20:36:52.567Z,67.14
2023-01-25T20:39:24.927Z,66.68
2023-01-25T20:42:07.408Z,67.38
2023-01-25T20:44:34.089Z,68.01
2023-01-25T20:47:12.283Z,66.13
2023-01-25T20:49:50.883Z,67.36
2023-01-25T20:52:17.552Z,66.75
2023-01-25T20:54:44.159Z,67.21
2023-01-25T20:57:10.886Z,67.22
2023-01-25T20:59:37.695Z,67.92
2023-01-25T21:02:04.481Z,66.59
2023-01-25T21:04:33.382Z,66.59
2023-01-25T21:07:01.305Z,66.92
2023-01-25T21:09:28.338Z,67.69
2023-01-25T21:11:55.023Z,67.82
2023-01-25T21:14:21.784Z,67.87
2023-01-25T21:16:48.490Z,68.61
2023-01-25T21:19:15.086Z,67.43
2023-01-25T21:21:41.717Z,65.87
2023-01-25T21:24:09.224Z,64.38
2023-01-25T21:26:37.155Z,66.54
2023-01-25T21:29:05.554Z,66.24
2023-01-25T21:31:35.962Z,66.84
2023-01-25T21:34:03.904Z,67.44
2023-01-25T21:36:30.725Z,66.59
2023-01-25T21:38:58.140Z,66.63
2023-01-25T21:41:30.495Z,68.84
2023-01-25T21:44:17.647Z,67.08
2023-01-25T21:46:51.347Z,66.83
2023-01-25T21:49:41.212Z,67.27
2023-01-25T21:52:07.874Z,66.88
2023-01-25T21:54:37.160Z,66.18
2023-01-25T21:57:08.771Z,67.15
2023-01-25T21:59:36.697Z,68.19
2023-01-25T22:02:05.036Z,68.48
2023-01-25T22:04:36.180Z,67.40
2023-01-25T22:07:04.209Z,67.33
2023-01-25T22:09:30.901Z,65.59
2023-01-25T22:11:57.562Z,66.55
2023-01-25T22:14:27.121Z,65.33
2023-01-25T22:16:56.024Z,65.37
2023-01-25T22:19:22.848Z,66.23
2023-01-25T22:21:49.537Z,66.11
2023-01-25T22:24:16.499Z,65.17
2023-01-25T22:26:45.946Z,67.62
2023-01-25T22:29:13.279Z,66.75
2023-01-25T22:31:40.060Z,67.36
2023-01-25T22:34:07.281Z,67.08
2023-01-25T22:36:33.961Z,69.13
2023-01-25T22:39:00.581Z,67.96
2023-01-25T22:41:29.604Z,68.13
2023-01-25T22:43:56.595Z,66.71
2023-01-25T22:46:28.682Z,67.03
2023-01-25T22:48:55.821Z,66.89
2023-01-25T22:51:25.856Z,66.40
2023-01-25T22:53:55.360Z,64.75
2023-01-25T22:56:28.962Z,66.22
2023-01-25T22:58:56.021Z,67.29
2023-01-25T23:01:31.189Z,66.41
2023-01-25T23:03:58.713Z,67.78
2023-01-25T23:06:34.643Z,69.56
2023-01-25T23:09:04.747Z,68.52
2023-01-25T23:11:37.457Z,66.83
2023-01-25T23:14:29.340Z,64.94
2023-01-25T23:17:18.407Z,65.61
2023-01-25T23:19:45.105Z,67.21
2023-01-25T23:22:11.829Z,68.69
2023-01-25T23:24:38.457Z,67.88
2023-01-25T23:27:05.093Z,68.47
2023-01-25T23:29:32.147Z,66.83
2023-01-25T23:31:58.884Z,67.36
2023-01-25T23:34:25.612Z,67.87
2023-01-25T23:36:52.233Z,68.69
2023-01-25T23:39:19.917Z,68.90
2023-01-25T23:41:46.597Z,68.93
2023-01-25T23:44:13.253Z,69.09
2023-01-25T23:46:39.966Z,66.62
2023-01-25T23:49:06.606Z,66.17
2023-01-25T23:51:33.205Z,67.88
2023-01-25T23:53:59.851Z,67.46
2023-01-25T23:56:26.499Z,66.58
2023-01-25T23:58:53.142Z,67.98
